Time;durP1;ratioP1;P1;durP2;ratioP2;P2;SDS_P1;SDS_P2;PMS_P1;PMS_P2;Temp;Humidity;BMP_temperature;BMP_pressure;BME280_temperature;BME280_humidity;BME280_pressure;Samples;Min_cycle;Max_cycle;Signal;HPM_P1;HPM_P2
2022/04/08 00:01:41;;;;;;;7.40;2.10;;;13.80;70.20;;;;;;5092416;28;20241;-83
2022/04/08 00:04:09;;;;;;;6.87;3.53;;;13.80;70.50;;;;;;5063296;28;20223;-85
2022/04/08 00:06:36;;;;;;;5.23;2.23;;;13.70;70.60;;;;;;5067312;28;20217;-85
2022/04/08 00:09:03;;;;;;;4.20;1.50;;;13.70;70.80;;;;;;5071494;28;20316;-85
2022/04/08 00:11:30;;;;;;;4.97;1.90;;;13.70;71.00;;;;;;5082424;28;20193;-85
2022/04/08 00:14:00;;;;;;;10.17;2.70;;;13.70;70.70;;;;;;5076420;28;20203;-85
2022/04/08 00:16:27;;;;;;;4.17;2.27;;;13.60;70.80;;;;;;5086490;28;20202;-85
2022/04/08 00:18:55;;;;;;;9.33;2.67;;;13.60;71.00;;;;;;5087470;28;20201;-85
2022/04/08 00:21:26;;;;;;;13.00;3.27;;;13.50;71.30;;;;;;5087972;28;20306;-84
2022/04/08 00:23:53;;;;;;;4.90;2.93;;;13.40;71.90;;;;;;5080568;28;20200;-85
2022/04/08 00:26:20;;;;;;;6.23;2.00;;;13.40;72.30;;;;;;5090968;28;20208;-86
2022/04/08 00:28:48;;;;;;;4.77;2.23;;;13.30;72.50;;;;;;5073365;28;20201;-86
2022/04/08 00:31:15;;;;;;;6.53;2.53;;;13.30;72.60;;;;;;5091077;28;20211;-85
2022/04/08 00:33:43;;;;;;;10.43;2.40;;;13.20;72.60;;;;;;5065983;28;20208;-85
2022/04/08 00:36:10;;;;;;;5.23;2.20;;;13.20;72.70;;;;;;5078973;28;20204;-85
2022/04/08 00:38:37;;;;;;;6.67;2.50;;;13.20;72.80;;;;;;5062995;28;20204;-85
2022/04/08 00:41:04;;;;;;;4.17;2.13;;;13.10;74.00;;;;;;5071688;28;20279;-85
2022/04/08 00:43:37;;;;;;;6.20;2.30;;;13.10;74.40;;;;;;5079734;28;20293;-85
2022/04/08 00:46:11;;;;;;;11.30;2.20;;;13.10;74.60;;;;;;5079311;28;20197;-85
2022/04/08 00:48:38;;;;;;;8.70;2.00;;;13.00;74.60;;;;;;5066007;28;20206;-83
2022/04/08 00:51:07;;;;;;;5.57;2.10;;;12.90;74.50;;;;;;5064007;28;20255;-83
2022/04/08 00:53:39;;;;;;;6.30;2.03;;;12.80;74.40;;;;;;5061846;28;20209;-85
2022/04/08 00:56:06;;;;;;;5.20;2.13;;;12.80;74.50;;;;;;5054763;28;20623;-84
2022/04/08 00:58:36;;;;;;;7.83;1.90;;;12.80;74.60;;;;;;5048649;28;20195;-85
2022/04/08 01:01:04;;;;;;;3.07;1.70;;;12.80;74.60;;;;;;5065647;28;20315;-85
2022/04/08 01:03:31;;;;;;;5.03;2.10;;;12.80;74.60;;;;;;5098151;28;20210;-85
2022/04/08 01:05:58;;;;;;;4.67;2.00;;;12.70;74.70;;;;;;5099867;28;20197;-86
2022/04/08 01:08:26;;;;;;;4.40;1.70;;;12.70;74.90;;;;;;5102532;28;20215;-85
2022/04/08 01:10:54;;;;;;;14.07;2.57;;;12.70;75.00;;;;;;5081230;28;20525;-85
2022/04/08 01:13:22;;;;;;;7.53;2.23;;;12.60;74.90;;;;;;5090020;28;20227;-85
2022/04/08 01:15:50;;;;;;;7.30;2.17;;;12.60;75.10;;;;;;5070942;28;20226;-85
2022/04/08 01:18:18;;;;;;;5.37;2.00;;;12.60;75.40;;;;;;5088268;28;20201;-85
2022/04/08 01:20:46;;;;;;;6.97;2.07;;;12.50;75.60;;;;;;5085901;28;20235;-85
2022/04/08 01:23:17;;;;;;;11.50;3.17;;;12.50;75.90;;;;;;5091441;28;20299;-83
2022/04/08 01:25:45;;;;;;;6.50;2.07;;;12.40;76.00;;;;;;5099674;28;20206;-85
2022/04/08 01:28:12;;;;;;;7.60;2.33;;;12.30;76.60;;;;;;5081630;28;20277;-83
2022/04/08 01:30:40;;;;;;;10.23;2.23;;;12.30;76.80;;;;;;5083343;28;20257;-82
2022/04/08 01:33:08;;;;;;;6.50;1.80;;;12.20;76.10;;;;;;5065185;28;20204;-83
2022/04/08 01:35:35;;;;;;;7.47;1.97;;;12.20;76.50;;;;;;5103845;28;20207;-83
2022/04/08 01:38:02;;;;;;;7.23;2.13;;;12.20;77.00;;;;;;5089717;28;20220;-83
2022/04/08 01:40:30;;;;;;;6.37;1.70;;;12.10;76.90;;;;;;5069931;28;20259;-83
2022/04/08 01:42:58;;;;;;;5.60;1.50;;;12.10;77.00;;;;;;5103246;28;20284;-83
2022/04/08 01:45:25;;;;;;;2.33;1.27;;;12.10;76.90;;;;;;5086425;28;20227;-83
2022/04/08 01:47:52;;;;;;;6.03;1.67;;;12.10;76.90;;;;;;5103595;28;20199;-83
2022/04/08 01:50:21;;;;;;;3.93;1.80;;;12.10;76.30;;;;;;5103615;28;20215;-84
2022/04/08 01:52:49;;;;;;;3.43;1.50;;;12.00;76.70;;;;;;5099672;28;20206;-83
2022/04/08 01:55:18;;;;;;;5.77;2.60;;;11.90;76.50;;;;;;5085906;28;20242;-83
2022/04/08 01:57:45;;;;;;;4.93;1.97;;;11.90;76.90;;;;;;5073239;28;20208;-83
2022/04/08 02:00:13;;;;;;;8.90;2.17;;;11.90;77.10;;;;;;5083998;28;20587;-83
2022/04/08 02:02:40;;;;;;;6.10;2.37;;;11.90;77.30;;;;;;5083533;28;20261;-83
2022/04/08 02:05:08;;;;;;;5.00;2.40;;;11.90;77.60;;;;;;5084649;28;20206;-84
2022/04/08 02:07:36;;;;;;;7.77;2.37;;;12.00;78.00;;;;;;5068002;28;20300;-83
2022/04/08 02:10:05;;;;;;;10.13;2.40;;;11.90;78.10;;;;;;5080956;28;20548;-84
2022/04/08 02:12:32;;;;;;;5.97;2.10;;;11.90;78.60;;;;;;5082800;28;20205;-84
2022/04/08 02:14:59;;;;;;;3.97;2.80;;;11.90;78.90;;;;;;5082653;28;20255;-84
2022/04/08 02:17:28;;;;;;;9.30;2.40;;;11.90;79.10;;;;;;5101668;28;20203;-84
2022/04/08 02:19:56;;;;;;;6.73;2.47;;;11.90;79.20;;;;;;5080345;28;20628;-83
2022/04/08 02:22:24;;;;;;;9.37;2.47;;;11.90;79.00;;;;;;5084109;28;20547;-82
2022/04/08 02:24:52;;;;;;;6.20;2.53;;;11.90;78.70;;;;;;5092149;28;20234;-83
2022/04/08 02:27:22;;;;;;;8.33;2.60;;;11.80;79.10;;;;;;5098029;28;20191;-82
2022/04/08 02:29:50;;;;;;;6.97;2.33;;;11.70;79.20;;;;;;5085300;28;20198;-83
2022/04/08 02:32:17;;;;;;;7.70;2.07;;;11.60;79.50;;;;;;5085409;28;20220;-82
2022/04/08 02:34:44;;;;;;;7.53;2.97;;;11.60;79.90;;;;;;5099433;28;20199;-83
2022/04/08 02:37:12;;;;;;;4.57;2.03;;;11.50;80.10;;;;;;5083752;28;20721;-83
2022/04/08 02:39:39;;;;;;;5.07;2.30;;;11.40;80.00;;;;;;5082981;28;20596;-83
2022/04/08 02:42:06;;;;;;;7.23;2.43;;;11.40;80.10;;;;;;5099389;28;20257;-83
2022/04/08 02:44:34;;;;;;;4.27;2.63;;;11.30;80.20;;;;;;5068291;28;20213;-82
2022/04/08 02:47:01;;;;;;;5.10;2.80;;;11.30;79.60;;;;;;5100675;28;20233;-83
2022/04/08 02:49:28;;;;;;;9.60;3.43;;;11.30;79.50;;;;;;5082789;28;20194;-83
2022/04/08 02:51:57;;;;;;;11.53;3.57;;;11.20;79.60;;;;;;5099820;28;20678;-84
2022/04/08 02:54:26;;;;;;;5.60;3.47;;;11.10;80.20;;;;;;5083610;28;20205;-83
2022/04/08 02:56:53;;;;;;;7.77;3.57;;;11.10;80.70;;;;;;5084197;28;20621;-84
2022/04/08 02:59:20;;;;;;;4.20;2.70;;;11.00;80.80;;;;;;5085591;28;20208;-82
2022/04/08 03:01:48;;;;;;;4.80;3.20;;;11.00;80.80;;;;;;5066411;28;20233;-83
2022/04/08 03:04:16;;;;;;;5.33;3.47;;;11.00;80.60;;;;;;5082326;28;20202;-82
2022/04/08 03:06:43;;;;;;;10.80;3.70;;;11.00;80.80;;;;;;5103011;28;20205;-83
2022/04/08 03:09:10;;;;;;;6.73;3.17;;;10.90;81.00;;;;;;5065215;28;20294;-83
2022/04/08 03:11:37;;;;;;;5.67;3.37;;;10.90;81.50;;;;;;5084003;28;20225;-84
2022/04/08 03:14:05;;;;;;;6.30;3.17;;;10.90;81.80;;;;;;5099435;28;20619;-84
2022/04/08 03:16:32;;;;;;;8.77;3.57;;;10.90;81.60;;;;;;5084791;28;20207;-84
2022/04/08 03:19:00;;;;;;;4.57;2.60;;;10.90;81.50;;;;;;5102199;28;20216;-84
2022/04/08 03:21:27;;;;;;;8.83;3.10;;;10.90;81.60;;;;;;5100558;28;20199;-84
2022/04/08 03:23:54;;;;;;;6.20;3.17;;;10.90;81.60;;;;;;5101001;28;20205;-85
2022/04/08 03:26:22;;;;;;;6.87;3.33;;;10.90;81.90;;;;;;5084659;28;20285;-83
2022/04/08 03:28:50;;;;;;;6.00;2.73;;;10.90;82.10;;;;;;5100061;28;20291;-83
2022/04/08 03:31:17;;;;;;;6.13;3.17;;;10.90;82.30;;;;;;5098695;28;20702;-82
2022/04/08 03:33:44;;;;;;;5.10;2.73;;;10.90;82.60;;;;;;5067148;28;20202;-83
2022/04/08 03:36:11;;;;;;;4.40;3.00;;;11.00;82.80;;;;;;5081948;28;20213;-83
2022/04/08 03:38:38;;;;;;;4.27;3.10;;;11.00;82.80;;;;;;5100653;28;20206;-84
2022/04/08 03:41:05;;;;;;;5.80;2.50;;;11.10;82.80;;;;;;5100197;28;20242;-82
2022/04/08 03:43:34;;;;;;;5.30;2.73;;;11.10;82.80;;;;;;5102196;28;20236;-84
2022/04/08 03:46:01;;;;;;;8.97;3.17;;;11.10;82.90;;;;;;5102053;28;20224;-84
2022/04/08 03:48:29;;;;;;;5.43;3.00;;;11.10;83.00;;;;;;5083968;28;20223;-84
2022/04/08 03:50:56;;;;;;;9.17;3.20;;;11.20;82.70;;;;;;5085093;28;20231;-84
2022/04/08 03:53:23;;;;;;;6.20;2.47;;;11.20;82.10;;;;;;5102394;28;20300;-85
2022/04/08 03:55:50;;;;;;;5.77;3.00;;;11.10;82.60;;;;;;5082338;28;20271;-85
2022/04/08 03:58:17;;;;;;;6.67;2.53;;;11.10;82.00;;;;;;5096240;28;20209;-83
2022/04/08 04:00:45;;;;;;;6.00;3.07;;;11.10;82.10;;;;;;5079165;28;20226;-83
2022/04/08 04:03:12;;;;;;;5.33;2.23;;;11.10;82.40;;;;;;5060478;28;20641;-83
2022/04/08 04:05:43;;;;;;;6.40;2.47;;;11.10;82.70;;;;;;5081199;28;20253;-82
2022/04/08 04:08:18;;;;;;;7.03;2.83;;;11.10;83.00;;;;;;5061336;28;20518;-82
2022/04/08 04:10:46;;;;;;;5.40;2.30;;;11.10;83.30;;;;;;5069354;28;20662;-84
2022/04/08 04:13:13;;;;;;;3.23;2.30;;;11.10;83.70;;;;;;5078198;28;20193;-84
2022/04/08 04:15:41;;;;;;;6.37;2.73;;;11.10;83.50;;;;;;5056933;28;20634;-83
2022/04/08 04:18:09;;;;;;;6.80;2.43;;;11.10;83.00;;;;;;5061055;28;20202;-84
2022/04/08 04:20:37;;;;;;;9.60;2.30;;;11.10;82.80;;;;;;5043696;28;20627;-82
2022/04/08 04:23:04;;;;;;;5.40;2.57;;;11.10;82.80;;;;;;5042849;28;20285;-82
2022/04/08 04:25:31;;;;;;;7.40;2.73;;;11.10;83.10;;;;;;5060770;28;20532;-82
2022/04/08 04:27:58;;;;;;;5.47;2.17;;;11.10;83.50;;;;;;5073176;28;20255;-82
2022/04/08 04:30:27;;;;;;;5.17;2.30;;;11.10;83.90;;;;;;5041640;28;20241;-83
2022/04/08 04:32:56;;;;;;;5.63;2.40;;;11.10;83.70;;;;;;5059098;28;20559;-84
2022/04/08 04:35:23;;;;;;;3.60;2.20;;;11.00;83.70;;;;;;5045553;28;20221;-83
2022/04/08 04:37:51;;;;;;;6.10;2.67;;;11.00;83.70;;;;;;5059873;28;20223;-83
2022/04/08 04:40:18;;;;;;;4.97;2.53;;;11.00;83.70;;;;;;5060900;28;20210;-83
2022/04/08 04:42:45;;;;;;;6.63;2.40;;;11.00;83.70;;;;;;5077138;28;20638;-84
2022/04/08 04:45:13;;;;;;;8.17;3.07;;;11.00;84.30;;;;;;5059176;28;20206;-85
2022/04/08 04:47:42;;;;;;;4.40;2.27;;;11.00;83.70;;;;;;5076173;28;20211;-84
2022/04/08 04:50:10;;;;;;;7.03;2.73;;;11.00;83.80;;;;;;5065631;28;20501;-84
2022/04/08 04:52:37;;;;;;;7.30;2.47;;;11.00;83.80;;;;;;5067267;28;20265;-85
2022/04/08 04:55:06;;;;;;;7.30;3.00;;;11.00;84.50;;;;;;5067779;28;20214;-84
2022/04/08 04:57:34;;;;;;;5.90;2.63;;;11.00;83.90;;;;;;5066203;28;20204;-85
2022/04/08 05:00:03;;;;;;;7.43;2.70;;;11.00;84.20;;;;;;5083394;28;20626;-84
2022/04/08 05:02:30;;;;;;;9.37;2.47;;;11.00;84.40;;;;;;5077743;28;20234;-84
2022/04/08 05:04:57;;;;;;;6.47;2.97;;;11.00;84.40;;;;;;5100529;28;20199;-84
2022/04/08 05:07:25;;;;;;;8.57;3.20;;;11.00;84.40;;;;;;5100674;28;20204;-85
2022/04/08 05:09:52;;;;;;;5.27;3.47;;;11.00;84.60;;;;;;5083276;28;20350;-84
2022/04/08 05:12:19;;;;;;;7.80;3.40;;;11.10;84.90;;;;;;5082842;28;20284;-84
2022/04/08 05:14:46;;;;;;;8.10;3.73;;;11.10;85.10;;;;;;5086540;28;20668;-84
2022/04/08 05:17:14;;;;;;;6.17;3.47;;;11.30;85.80;;;;;;5083763;28;20216;-85
2022/04/08 05:19:41;;;;;;;6.50;2.53;;;11.40;84.90;;;;;;5086000;28;20203;-84
2022/04/08 05:22:13;;;;;;;5.90;2.97;;;11.60;84.40;;;;;;5085292;28;20246;-85
2022/04/08 05:24:40;;;;;;;5.03;2.70;;;11.90;83.40;;;;;;5082151;28;20589;-84
2022/04/08 05:27:09;;;;;;;4.47;2.43;;;12.20;82.20;;;;;;5100999;28;20256;-84
2022/04/08 05:29:37;;;;;;;3.47;2.50;;;12.50;80.80;;;;;;5068863;28;20226;-84
2022/04/08 05:32:05;;;;;;;4.00;2.60;;;12.80;80.50;;;;;;5084204;28;20293;-84
2022/04/08 05:34:32;;;;;;;5.07;3.07;;;13.10;79.00;;;;;;5082108;28;20227;-85
2022/04/08 05:36:59;;;;;;;7.93;3.60;;;13.30;78.40;;;;;;5086694;28;20202;-85
2022/04/08 05:39:27;;;;;;;9.60;3.07;;;13.30;78.20;;;;;;5099821;28;20206;-85
2022/04/08 05:41:54;;;;;;;4.03;2.30;;;13.30;78.40;;;;;;5084823;28;20232;-85
2022/04/08 05:44:21;;;;;;;5.73;2.70;;;13.30;78.80;;;;;;5085009;28;20218;-85
2022/04/08 05:46:49;;;;;;;7.50;3.43;;;13.30;79.10;;;;;;5083266;28;20214;-84
2022/04/08 05:49:17;;;;;;;5.43;2.40;;;13.30;79.40;;;;;;5084484;28;20622;-84
2022/04/08 05:51:47;;;;;;;14.00;3.07;;;13.30;80.10;;;;;;5086371;28;20201;-85
2022/04/08 05:54:14;;;;;;;8.13;2.70;;;13.30;80.40;;;;;;5102900;28;20207;-84
2022/04/08 05:56:41;;;;;;;7.57;2.70;;;13.30;80.60;;;;;;5102694;28;20193;-85
2022/04/08 05:59:08;;;;;;;6.43;3.07;;;13.40;81.10;;;;;;5102097;28;20235;-84
2022/04/08 06:01:36;;;;;;;9.77;3.33;;;13.50;81.70;;;;;;5086058;28;20624;-85
2022/04/08 06:04:03;;;;;;;6.67;3.03;;;13.80;81.50;;;;;;5086070;28;20247;-84
2022/04/08 06:06:30;;;;;;;7.93;3.10;;;14.10;80.40;;;;;;5088197;28;20233;-86
2022/04/08 06:09:00;;;;;;;6.43;2.90;;;14.70;77.90;;;;;;5103227;28;20202;-86
2022/04/08 06:11:28;;;;;;;7.93;3.00;;;15.30;76.30;;;;;;5087336;28;20220;-85
2022/04/08 06:13:56;;;;;;;5.67;2.87;;;15.70;74.70;;;;;;5088688;28;20207;-84
2022/04/08 06:16:25;;;;;;;6.93;2.87;;;16.10;74.00;;;;;;5101005;28;20286;-84
2022/04/08 06:18:52;;;;;;;10.00;2.67;;;16.40;73.20;;;;;;5082555;28;20227;-85
2022/04/08 06:21:20;;;;;;;5.60;2.50;;;16.60;72.30;;;;;;5107929;28;20205;-85
2022/04/08 06:23:49;;;;;;;6.63;2.00;;;16.80;70.90;;;;;;5107106;28;20247;-85
2022/04/08 06:26:16;;;;;;;8.80;2.10;;;16.90;70.70;;;;;;5096229;28;20653;-85
2022/04/08 06:28:44;;;;;;;6.47;2.30;;;17.00;70.80;;;;;;5084333;28;20258;-85
2022/04/08 06:31:11;;;;;;;7.97;2.07;;;17.10;70.40;;;;;;5101662;28;20192;-85
2022/04/08 06:33:44;;;;;;;4.27;1.70;;;17.30;70.00;;;;;;5091990;28;20224;-85
2022/04/08 06:36:11;;;;;;;6.40;1.57;;;17.30;68.60;;;;;;5079541;28;20197;-85
2022/04/08 06:38:39;;;;;;;5.00;1.90;;;17.30;67.60;;;;;;5071009;28;20581;-84
2022/04/08 06:41:06;;;;;;;5.00;1.97;;;17.40;68.40;;;;;;5087068;28;20200;-85
2022/04/08 06:43:34;;;;;;;8.80;2.00;;;17.40;69.50;;;;;;5081029;28;20600;-85
2022/04/08 06:46:01;;;;;;;5.00;2.00;;;17.40;70.00;;;;;;5077203;28;20273;-84
2022/04/08 06:48:29;;;;;;;8.53;2.10;;;17.40;70.50;;;;;;5086266;28;20212;-85
2022/04/08 06:50:58;;;;;;;7.60;3.03;;;17.40;69.60;;;;;;5098263;28;20186;-85
2022/04/08 06:53:25;;;;;;;5.40;2.40;;;17.40;68.60;;;;;;5065913;28;20213;-85
2022/04/08 06:55:52;;;;;;;8.33;2.40;;;17.50;69.20;;;;;;5088546;28;20201;-84
2022/04/08 06:58:19;;;;;;;4.93;1.90;;;17.60;69.50;;;;;;5103670;28;20228;-85
2022/04/08 07:00:47;;;;;;;6.03;2.13;;;17.80;69.40;;;;;;5103980;28;20538;-85
2022/04/08 07:03:14;;;;;;;7.47;2.33;;;18.00;68.50;;;;;;5103839;28;20285;-85
2022/04/08 07:05:41;;;;;;;4.10;1.60;;;18.10;66.80;;;;;;5088691;28;20194;-85
2022/04/08 07:08:09;;;;;;;5.30;1.80;;;18.30;66.10;;;;;;5106713;28;20195;-84
2022/04/08 07:10:38;;;;;;;4.97;1.63;;;18.40;66.20;;;;;;5108228;28;20207;-84
2022/04/08 07:13:07;;;;;;;4.37;1.70;;;18.60;66.20;;;;;;5105758;28;20270;-85
2022/04/08 07:15:35;;;;;;;4.17;1.73;;;18.80;66.20;;;;;;5063894;28;20221;-84
2022/04/08 07:18:05;;;;;;;5.47;1.80;;;19.00;65.60;;;;;;5080407;28;20203;-85
2022/04/08 07:20:33;;;;;;;6.70;2.20;;;19.10;63.10;;;;;;5084330;28;20210;-84
2022/04/08 07:23:02;;;;;;;5.83;1.73;;;19.20;63.50;;;;;;5064923;28;20613;-84
2022/04/08 07:25:29;;;;;;;4.17;2.00;;;19.20;63.90;;;;;;5066542;28;20214;-85
2022/04/08 07:27:58;;;;;;;10.87;2.00;;;19.40;64.10;;;;;;5080849;28;20293;-84
2022/04/08 07:30:27;;;;;;;3.87;1.70;;;19.50;63.80;;;;;;5078454;28;20204;-84
2022/04/08 07:32:54;;;;;;;6.60;1.70;;;19.60;62.20;;;;;;5096257;28;20207;-84
2022/04/08 07:35:25;;;;;;;9.83;1.97;;;19.70;62.30;;;;;;5077170;28;20198;-84
2022/04/08 07:37:53;;;;;;;7.23;2.43;;;19.80;62.60;;;;;;5077958;28;20195;-85
2022/04/08 07:40:21;;;;;;;7.33;2.27;;;19.90;62.40;;;;;;5079410;28;20208;-84
2022/04/08 07:42:49;;;;;;;6.20;2.53;;;20.00;61.20;;;;;;5097412;28;20284;-84
2022/04/08 07:45:17;;;;;;;4.90;2.00;;;20.10;60.80;;;;;;5097498;28;20193;-85
2022/04/08 07:47:44;;;;;;;3.17;1.73;;;20.10;60.60;;;;;;5077146;28;20261;-84
2022/04/08 07:50:14;;;;;;;6.30;2.17;;;20.20;59.90;;;;;;5081313;28;20602;-84
2022/04/08 07:52:42;;;;;;;4.03;1.80;;;20.20;60.10;;;;;;5098192;28;20200;-84
2022/04/08 07:55:10;;;;;;;4.73;1.73;;;20.30;60.10;;;;;;5093851;28;20529;-84
2022/04/08 07:57:48;;;;;;;7.97;2.23;;;20.40;60.00;;;;;;5080310;28;20214;-84
2022/04/08 08:00:19;;;;;;;7.77;2.03;;;20.50;59.50;;;;;;5078337;28;20197;-85
2022/04/08 08:02:48;;;;;;;4.27;1.87;;;20.60;60.10;;;;;;5066081;28;20255;-85
2022/04/08 08:05:15;;;;;;;5.03;1.50;;;20.70;60.50;;;;;;5097595;28;20310;-84
2022/04/08 08:07:44;;;;;;;5.80;1.80;;;20.70;59.80;;;;;;5098450;28;20268;-84
2022/04/08 08:10:14;;;;;;;5.07;1.70;;;20.90;60.00;;;;;;5083624;28;20225;-84
2022/04/08 08:12:42;;;;;;;4.63;1.50;;;21.20;59.90;;;;;;5080295;28;20205;-83
2022/04/08 08:15:10;;;;;;;10.40;2.03;;;21.50;59.70;;;;;;5084385;28;20210;-85
2022/04/08 08:17:39;;;;;;;5.40;1.27;;;21.80;58.90;;;;;;5084637;28;20201;-83
2022/04/08 08:20:07;;;;;;;6.20;1.40;;;22.00;58.10;;;;;;5064732;28;20204;-87
2022/04/08 08:22:36;;;;;;;4.63;1.00;;;22.20;57.70;;;;;;5064396;28;20205;-84
2022/04/08 08:25:06;;;;;;;1.87;1.00;;;22.40;57.10;;;;;;5098973;28;20285;-85
2022/04/08 08:27:42;;;;;;;5.23;1.20;;;22.60;55.90;;;;;;5064297;28;20208;-84
2022/04/08 08:30:13;;;;;;;3.87;0.90;;;22.70;55.30;;;;;;5079286;28;20189;-87
2022/04/08 08:32:47;;;;;;;3.63;1.10;;;22.90;54.50;;;;;;5081703;28;20241;-83
2022/04/08 08:35:18;;;;;;;2.13;0.93;;;23.00;54.20;;;;;;5097387;28;20288;-83
2022/04/08 08:37:48;;;;;;;2.73;1.00;;;22.90;53.70;;;;;;5080568;28;20193;-84
2022/04/08 08:40:17;;;;;;;2.27;0.90;;;22.90;53.60;;;;;;5080520;28;20550;-85
2022/04/08 08:42:45;;;;;;;4.97;1.30;;;23.00;54.30;;;;;;5083172;28;20529;-84
2022/04/08 08:45:16;;;;;;;4.70;1.00;;;23.20;54.10;;;;;;5081622;28;20224;-83
2022/04/08 08:47:47;;;;;;;4.43;1.20;;;23.40;52.60;;;;;;5093329;28;20217;-84
2022/04/08 08:50:17;;;;;;;3.70;1.20;;;23.50;52.20;;;;;;5061531;28;20278;-84
2022/04/08 08:52:49;;;;;;;3.13;1.20;;;23.60;52.10;;;;;;5077247;28;20204;-84
2022/04/08 08:55:18;;;;;;;3.57;0.83;;;23.80;52.40;;;;;;5070819;28;20205;-84
2022/04/08 08:57:47;;;;;;;2.47;1.17;;;24.10;51.70;;;;;;5078196;28;20197;-85
2022/04/08 09:00:18;;;;;;;1.87;0.87;;;24.20;50.40;;;;;;5094963;28;20667;-84
2022/04/08 09:02:48;;;;;;;3.83;1.37;;;24.30;50.20;;;;;;5075053;28;20244;-83
2022/04/08 09:05:20;;;;;;;2.67;0.90;;;24.30;50.00;;;;;;5079114;28;20277;-84
2022/04/08 09:07:59;;;;;;;3.87;1.10;;;24.20;49.70;;;;;;5091633;28;20204;-84
2022/04/08 09:10:52;;;;;;;4.33;1.27;;;24.10;49.80;;;;;;5075742;28;20544;-84
2022/04/08 09:13:22;;;;;;;2.40;0.60;;;24.00;49.40;;;;;;5078266;28;20252;-83
2022/04/08 09:16:01;;;;;;;4.93;1.10;;;24.00;50.60;;;;;;5057371;28;20206;-84
2022/04/08 09:18:32;;;;;;;3.03;1.07;;;24.10;49.40;;;;;;5078252;28;20211;-83
2022/04/08 09:21:04;;;;;;;6.90;0.93;;;24.20;49.20;;;;;;5078051;28;20217;-84
2022/04/08 09:23:33;;;;;;;4.60;1.23;;;24.40;49.20;;;;;;5078744;28;20209;-84
2022/04/08 09:26:05;;;;;;;4.10;1.03;;;24.60;49.80;;;;;;5096029;28;20189;-83
2022/04/08 09:28:35;;;;;;;1.50;1.00;;;24.80;48.90;;;;;;5073161;28;20282;-83
2022/04/08 09:31:03;;;;;;;2.70;1.00;;;24.80;48.40;;;;;;5076042;28;20197;-84
2022/04/08 09:33:31;;;;;;;2.43;1.00;;;24.80;48.40;;;;;;5094178;28;20208;-84
2022/04/08 09:36:02;;;;;;;2.60;1.10;;;24.90;48.80;;;;;;5094627;28;20214;-82
2022/04/08 09:38:30;;;;;;;3.63;1.13;;;24.90;48.50;;;;;;5079584;28;20210;-85
2022/04/08 09:41:01;;;;;;;2.77;1.30;;;24.90;47.50;;;;;;5079688;28;20297;-85
2022/04/08 09:43:36;;;;;;;2.10;0.90;;;24.80;48.20;;;;;;5080048;28;20231;-88
2022/04/08 09:46:18;;;;;;;2.13;0.90;;;24.80;48.10;;;;;;5079300;28;21040;-85
2022/04/08 09:48:48;;;;;;;3.83;1.00;;;24.70;48.30;;;;;;5095536;28;20189;-85
2022/04/08 09:51:20;;;;;;;4.90;0.93;;;24.70;48.00;;;;;;5095792;28;20268;-85
2022/04/08 09:53:57;;;;;;;2.73;0.90;;;24.80;47.90;;;;;;5078657;28;20209;-85
2022/04/08 09:56:27;;;;;;;7.00;1.20;;;24.90;48.60;;;;;;5098499;28;20265;-84
2022/04/08 09:59:13;;;;;;;3.80;0.83;;;25.00;47.60;;;;;;5068222;28;20219;-83
2022/04/08 10:01:44;;;;;;;2.47;1.00;;;24.80;47.10;;;;;;5079794;28;20697;-83
2022/04/08 10:04:14;;;;;;;2.33;0.80;;;24.60;47.50;;;;;;5060922;28;20643;-85
2022/04/08 10:06:43;;;;;;;3.87;1.07;;;24.50;48.40;;;;;;5084557;28;20197;-85
2022/04/08 10:09:15;;;;;;;5.33;1.20;;;24.60;48.30;;;;;;5077733;28;20190;-85
2022/04/08 10:12:04;;;;;;;4.13;1.30;;;24.70;49.20;;;;;;5058588;28;20202;-84
2022/04/08 10:14:57;;;;;;;3.50;1.10;;;24.80;48.20;;;;;;5056788;28;20214;-83
2022/04/08 10:17:25;;;;;;;4.43;1.27;;;24.90;48.30;;;;;;5080075;28;20283;-83
2022/04/08 10:19:52;;;;;;;4.93;1.07;;;25.00;47.90;;;;;;5058395;28;20210;-83
2022/04/08 10:22:21;;;;;;;1.73;1.00;;;25.10;48.30;;;;;;5059774;28;20189;-85
2022/04/08 10:24:55;;;;;;;2.67;0.90;;;25.20;48.70;;;;;;5059291;28;20304;-82
2022/04/08 10:27:38;;;;;;;3.77;1.03;;;25.30;47.70;;;;;;5065105;28;20198;-84
2022/04/08 10:30:24;;;;;;;2.63;1.07;;;25.30;47.50;;;;;;5079579;28;20202;-84
2022/04/08 10:33:00;;;;;;;6.27;1.37;;;25.30;47.70;;;;;;5075845;28;20276;-84
2022/04/08 10:35:29;;;;;;;5.23;1.30;;;25.40;47.20;;;;;;5046439;28;20228;-84
2022/04/08 10:38:01;;;;;;;3.40;0.93;;;25.40;47.10;;;;;;5062654;28;20201;-84
2022/04/08 10:40:37;;;;;;;4.47;1.10;;;25.40;47.20;;;;;;5082041;28;20234;-83
2022/04/08 10:43:08;;;;;;;2.23;1.07;;;25.40;47.40;;;;;;5063310;28;20216;-85
2022/04/08 10:45:38;;;;;;;2.40;1.10;;;25.50;47.30;;;;;;5059281;28;20290;-83
2022/04/08 10:48:16;;;;;;;1.67;0.80;;;25.60;47.30;;;;;;5058962;28;20208;-82
2022/04/08 10:50:43;;;;;;;2.87;1.23;;;25.60;47.00;;;;;;5039174;28;20239;-83
2022/04/08 10:53:19;;;;;;;3.40;1.00;;;25.60;47.60;;;;;;5058237;28;20292;-85
2022/04/08 10:56:07;;;;;;;2.37;1.03;;;25.70;47.70;;;;;;5064074;28;20618;-83
2022/04/08 10:58:46;;;;;;;6.47;1.10;;;25.70;47.40;;;;;;5058674;28;20233;-82
2022/04/08 11:01:22;;;;;;;5.17;1.07;;;25.80;47.20;;;;;;5080068;28;20325;-83
2022/04/08 11:04:04;;;;;;;5.40;1.40;;;25.80;47.50;;;;;;5080190;28;20773;-83
2022/04/08 11:06:36;;;;;;;2.33;0.97;;;25.80;47.80;;;;;;5082655;28;20197;-86
2022/04/08 11:09:12;;;;;;;5.40;1.20;;;25.80;47.20;;;;;;5067487;28;20205;-85
2022/04/08 11:11:43;;;;;;;4.07;1.23;;;25.90;47.70;;;;;;5088167;28;20704;-82
2022/04/08 11:14:12;;;;;;;2.83;0.77;;;26.00;46.80;;;;;;5088340;28;20291;-84
2022/04/08 11:16:40;;;;;;;1.50;0.90;;;26.10;46.90;;;;;;5085342;28;20666;-84
2022/04/08 11:19:10;;;;;;;2.77;1.00;;;26.20;47.50;;;;;;5064162;28;20211;-83
2022/04/08 11:21:41;;;;;;;2.13;1.03;;;26.30;46.50;;;;;;5084140;28;20233;-83
2022/04/08 11:24:14;;;;;;;3.80;1.20;;;26.30;44.60;;;;;;5077681;28;20307;-83
2022/04/08 11:26:47;;;;;;;2.27;0.83;;;26.40;44.50;;;;;;5100668;28;20193;-83
2022/04/08 11:29:16;;;;;;;1.53;0.70;;;26.50;44.20;;;;;;5097985;28;20201;-80
2022/04/08 11:31:45;;;;;;;1.63;0.90;;;26.60;43.00;;;;;;5081649;28;20300;-83
2022/04/08 11:34:13;;;;;;;2.93;0.93;;;26.60;42.60;;;;;;5100866;28;20301;-82
2022/04/08 11:36:43;;;;;;;3.10;1.00;;;26.70;41.50;;;;;;5080243;28;20701;-84
2022/04/08 11:39:20;;;;;;;3.50;0.77;;;26.80;41.10;;;;;;5066676;28;20301;-85
2022/04/08 11:41:56;;;;;;;3.50;1.17;;;26.80;40.70;;;;;;5079665;28;20214;-83
2022/04/08 11:44:24;;;;;;;4.83;1.00;;;26.80;40.80;;;;;;5101690;28;20294;-84
2022/04/08 11:46:51;;;;;;;7.40;0.87;;;26.80;41.60;;;;;;5063007;28;20210;-85
2022/04/08 11:49:24;;;;;;;5.70;0.73;;;26.80;41.80;;;;;;5079883;28;20264;-82
2022/04/08 11:52:06;;;;;;;4.20;0.90;;;26.90;41.30;;;;;;5080326;28;20207;-82
2022/04/08 11:54:38;;;;;;;7.33;0.90;;;27.00;41.20;;;;;;5100579;28;20197;-86
2022/04/08 11:57:30;;;;;;;2.10;1.17;;;27.00;41.60;;;;;;5087979;28;20219;-82
2022/04/08 12:00:05;;;;;;;4.37;0.80;;;27.10;41.30;;;;;;5084444;28;20199;-83
2022/04/08 12:02:38;;;;;;;7.27;1.10;;;27.00;40.90;;;;;;5078386;28;20221;-83
2022/04/08 12:05:07;;;;;;;5.57;1.57;;;27.00;41.10;;;;;;5066389;28;20237;-82
2022/04/08 12:08:00;;;;;;;3.43;0.93;;;27.00;41.20;;;;;;5082813;28;20228;-82
2022/04/08 12:10:27;;;;;;;3.33;1.13;;;27.10;40.60;;;;;;5090637;28;20215;-82
2022/04/08 12:12:54;;;;;;;3.60;1.20;;;27.00;40.30;;;;;;5089122;28;20200;-84
2022/04/08 12:15:23;;;;;;;6.97;1.30;;;27.10;41.10;;;;;;5076980;28;20211;-82
2022/04/08 12:17:50;;;;;;;3.07;1.23;;;27.10;41.10;;;;;;5086906;28;20652;-83
2022/04/08 12:20:21;;;;;;;3.20;1.20;;;27.00;40.40;;;;;;5086540;28;20295;-83
2022/04/08 12:22:50;;;;;;;3.43;1.17;;;27.00;41.00;;;;;;5097702;28;20203;-84
2022/04/08 12:25:18;;;;;;;3.17;1.33;;;27.00;41.90;;;;;;5081897;28;20226;-84
2022/04/08 12:27:55;;;;;;;5.03;1.33;;;27.10;41.80;;;;;;5094056;28;20239;-83
2022/04/08 12:30:36;;;;;;;4.57;1.33;;;27.20;41.80;;;;;;5078739;28;20203;-82
2022/04/08 12:33:04;;;;;;;4.77;0.93;;;27.30;41.40;;;;;;5080849;28;20200;-83
2022/04/08 12:35:31;;;;;;;8.17;1.67;;;27.40;41.00;;;;;;5075588;28;20199;-83
2022/04/08 12:37:59;;;;;;;4.43;1.43;;;27.40;41.80;;;;;;5077788;28;20209;-83
2022/04/08 12:40:27;;;;;;;6.87;1.50;;;27.40;41.60;;;;;;5078113;28;20208;-82
2022/04/08 12:42:55;;;;;;;3.30;1.67;;;27.20;42.30;;;;;;5062052;28;20693;-83
2022/04/08 12:45:23;;;;;;;4.00;1.57;;;27.00;42.80;;;;;;5078188;28;20227;-82
2022/04/08 12:47:52;;;;;;;4.80;1.93;;;26.80;43.40;;;;;;5063005;28;20200;-83
2022/04/08 12:50:19;;;;;;;6.03;2.40;;;26.70;43.90;;;;;;5094256;28;20197;-80
2022/04/08 12:52:46;;;;;;;4.07;1.73;;;26.70;45.70;;;;;;5078551;28;20219;-81
2022/04/08 12:55:14;;;;;;;5.90;1.97;;;26.80;44.40;;;;;;5080223;28;20658;-83
2022/04/08 12:57:42;;;;;;;7.17;2.20;;;27.00;44.30;;;;;;5078050;28;20235;-82